createdAt,value
2022-10-22T00:00:46.118Z,78.80
2022-10-22T00:03:13.717Z,78.90
2022-10-22T00:05:41.003Z,78.50
2022-10-22T00:08:08.276Z,78.80
2022-10-22T00:10:37.711Z,79.00
2022-10-22T00:13:06.404Z,79.00
2022-10-22T00:15:33.705Z,79.10
2022-10-22T00:18:00.974Z,79.40
2022-10-22T00:20:28.403Z,79.10
2022-10-22T00:22:55.698Z,79.60
2022-10-22T00:25:23.087Z,78.50
2022-10-22T00:27:50.448Z,78.60
2022-10-22T00:30:19.283Z,78.20
2022-10-22T00:32:46.537Z,78.00
2022-10-22T00:35:14.365Z,78.40
2022-10-22T00:37:41.614Z,79.30
2022-10-22T00:40:10.473Z,77.90
2022-10-22T00:42:38.126Z,77.40
2022-10-22T00:45:18.423Z,78.00
2022-10-22T00:47:51.425Z,78.40
2022-10-22T00:50:24.638Z,78.30
2022-10-22T00:52:52.242Z,77.60
2022-10-22T00:55:20.730Z,79.00
2022-10-22T00:57:48.388Z,79.50
2022-10-22T01:00:17.017Z,79.60
2022-10-22T01:02:44.609Z,79.60
2022-10-22T01:05:13.419Z,79.60
2022-10-22T01:07:44.666Z,78.60
2022-10-22T01:10:19.235Z,79.50
2022-10-22T01:12:53.970Z,79.90
2022-10-22T01:15:28.799Z,80.10
2022-10-22T01:18:01.197Z,80.00
2022-10-22T01:20:48.265Z,79.50
2022-10-22T01:23:32.899Z,79.80
2022-10-22T01:26:06.422Z,79.80
2022-10-22T01:28:58.606Z,79.70
2022-10-22T01:31:29.830Z,80.00
2022-10-22T01:33:59.259Z,80.20
2022-10-22T01:36:29.400Z,79.90
2022-10-22T01:38:58.770Z,80.50
2022-10-22T01:41:28.317Z,80.80
2022-10-22T01:43:55.631Z,80.50
2022-10-22T01:46:26.734Z,80.40
2022-10-22T01:49:13.304Z,80.40
2022-10-22T01:51:57.477Z,80.50
2022-10-22T01:54:33.408Z,79.90
2022-10-22T01:57:12.323Z,79.30
2022-10-22T01:59:50.560Z,79.00
2022-10-22T02:02:29.034Z,79.30
2022-10-22T02:05:00.667Z,79.00
2022-10-22T02:07:32.753Z,79.20
2022-10-22T02:10:00.918Z,79.90
2022-10-22T02:12:31.549Z,80.00
2022-10-22T02:15:00.633Z,79.90
2022-10-22T02:17:32.966Z,79.50
2022-10-22T02:20:03.529Z,79.50
2022-10-22T02:22:31.082Z,79.80
2022-10-22T02:24:58.601Z,78.70
2022-10-22T02:27:30.252Z,79.20
2022-10-22T02:30:02.202Z,79.40
2022-10-22T02:32:36.247Z,79.40
2022-10-22T02:35:04.573Z,79.50
2022-10-22T02:37:32.831Z,79.30
2022-10-22T02:40:00.101Z,78.90
2022-10-22T02:42:29.399Z,79.00
2022-10-22T02:44:56.700Z,78.30
2022-10-22T02:47:23.954Z,78.80
2022-10-22T02:49:52.539Z,78.20
2022-10-22T02:52:19.800Z,78.30
2022-10-22T02:54:47.090Z,78.20
2022-10-22T02:57:14.461Z,78.20
2022-10-22T02:59:41.865Z,78.40
2022-10-22T03:02:09.118Z,79.10
2022-10-22T03:04:36.588Z,79.60
2022-10-22T03:07:05.177Z,79.40
2022-10-22T03:09:32.479Z,79.40
2022-10-22T03:11:59.831Z,79.90
2022-10-22T03:14:27.119Z,79.50
2022-10-22T03:16:54.444Z,79.80
2022-10-22T03:19:22.172Z,79.40
2022-10-22T03:21:52.836Z,79.30
2022-10-22T03:24:24.776Z,79.80
2022-10-22T03:26:52.983Z,79.30
2022-10-22T03:29:23.599Z,78.20
2022-10-22T03:31:50.945Z,79.00
2022-10-22T03:34:18.319Z,79.50
2022-10-22T03:36:46.329Z,79.70
2022-10-22T03:39:14.880Z,79.90
2022-10-22T03:41:44.388Z,79.70
2022-10-22T03:44:12.190Z,79.00
2022-10-22T03:46:39.451Z,79.60
2022-10-22T03:49:06.745Z,78.70
2022-10-22T03:51:34.558Z,78.50
2022-10-22T03:54:01.858Z,77.90
2022-10-22T03:56:29.655Z,78.20
2022-10-22T03:59:00.026Z,78.70
2022-10-22T04:01:29.153Z,79.60
2022-10-22T04:03:57.132Z,79.20
2022-10-22T04:06:24.975Z,78.30
2022-10-22T04:08:52.270Z,78.80
2022-10-22T04:11:19.555Z,79.70
2022-10-22T04:13:46.801Z,80.00
2022-10-22T04:16:17.547Z,80.10
2022-10-22T04:18:46.341Z,80.20
2022-10-22T04:21:15.605Z,80.10
2022-10-22T04:23:45.119Z,79.80
2022-10-22T04:26:12.339Z,78.80
2022-10-22T04:28:39.657Z,79.20
2022-10-22T04:31:10.134Z,79.50
2022-10-22T04:33:39.277Z,79.60
2022-10-22T04:36:08.160Z,80.00
2022-10-22T04:38:35.619Z,80.50
2022-10-22T04:41:13.554Z,80.60
2022-10-22T04:43:41.648Z,80.80
2022-10-22T04:46:09.351Z,80.40
2022-10-22T04:48:39.587Z,80.40
2022-10-22T04:51:07.739Z,80.10
2022-10-22T04:53:38.064Z,79.80
2022-10-22T04:56:10.533Z,79.90
2022-10-22T04:58:38.305Z,79.80
2022-10-22T05:01:13.826Z,80.20
2022-10-22T05:03:43.361Z,79.90
2022-10-22T05:06:14.312Z,80.10
2022-10-22T05:08:43.498Z,80.00
2022-10-22T05:11:12.218Z,79.10
2022-10-22T05:13:39.499Z,79.40
2022-10-22T05:16:07.231Z,79.30
2022-10-22T05:18:36.423Z,78.70
2022-10-22T05:21:08.608Z,78.80
2022-10-22T05:23:35.886Z,79.40
2022-10-22T05:26:03.841Z,79.80
2022-10-22T05:28:32.087Z,79.80
2022-10-22T05:31:00.818Z,78.50
2022-10-22T05:33:29.269Z,78.40
2022-10-22T05:35:57.143Z,79.30
2022-10-22T05:38:25.950Z,78.90
2022-10-22T05:41:00.584Z,78.60
2022-10-22T05:43:28.253Z,77.90
2022-10-22T05:45:55.639Z,78.40
2022-10-22T05:48:22.975Z,78.20
2022-10-22T05:50:50.697Z,78.60
2022-10-22T05:53:18.581Z,77.70
2022-10-22T05:55:47.199Z,78.10
2022-10-22T05:58:14.991Z,78.70
2022-10-22T06:00:42.200Z,78.20
2022-10-22T06:03:09.405Z,78.50
2022-10-22T06:05:37.649Z,78.80
2022-10-22T06:08:05.613Z,78.60
2022-10-22T06:10:33.056Z,78.80
2022-10-22T06:13:03.167Z,78.90
2022-10-22T06:15:30.441Z,79.60
2022-10-22T06:17:57.637Z,80.00
2022-10-22T06:20:24.946Z,80.20
2022-10-22T06:22:52.239Z,80.20
2022-10-22T06:25:19.466Z,79.20
2022-10-22T06:27:49.954Z,78.60
2022-10-22T06:30:18.493Z,78.60
2022-10-22T06:32:45.703Z,78.30
2022-10-22T06:35:12.918Z,79.20
2022-10-22T06:37:40.410Z,78.70
2022-10-22T06:40:08.689Z,79.20
2022-10-22T06:42:35.985Z,79.40
2022-10-22T06:45:03.579Z,79.70
2022-10-22T06:47:33.360Z,79.80
2022-10-22T06:50:00.592Z,80.00
2022-10-22T06:52:27.924Z,80.40
2022-10-22T06:54:55.148Z,80.40
2022-10-22T06:57:22.367Z,80.40
2022-10-22T06:59:49.601Z,80.30
2022-10-22T07:02:16.842Z,80.50
2022-10-22T07:04:45.463Z,80.80
2022-10-22T07:07:12.685Z,80.60
2022-10-22T07:09:39.880Z,81.30
2022-10-22T07:12:07.307Z,81.40
2022-10-22T07:14:34.540Z,81.20
2022-10-22T07:17:02.147Z,81.40
2022-10-22T07:19:29.512Z,81.00
2022-10-22T07:21:58.091Z,81.30
2022-10-22T07:24:25.467Z,81.10
2022-10-22T07:26:52.801Z,81.60
2022-10-22T07:29:20.025Z,81.70
2022-10-22T07:31:47.254Z,81.60
2022-10-22T07:34:15.252Z,81.00
2022-10-22T07:36:42.507Z,81.20
2022-10-22T07:39:11.024Z,81.30
2022-10-22T07:41:38.456Z,81.30
2022-10-22T07:44:05.631Z,81.40
2022-10-22T07:46:32.939Z,80.90
2022-10-22T07:49:00.167Z,81.10
2022-10-22T07:51:27.396Z,81.70
2022-10-22T07:53:54.806Z,82.50
2022-10-22T07:56:23.448Z,82.10
2022-10-22T07:58:50.722Z,81.60
2022-10-22T08:01:18.085Z,81.30
2022-10-22T08:03:45.572Z,80.60
2022-10-22T08:06:18.412Z,80.90
2022-10-22T08:08:46.446Z,80.90
2022-10-22T08:11:13.915Z,81.00
2022-10-22T08:13:53.921Z,80.90
2022-10-22T08:16:21.207Z,81.10
2022-10-22T08:18:48.459Z,80.90
2022-10-22T08:21:17.099Z,80.90
2022-10-22T08:23:44.386Z,81.00
2022-10-22T08:26:11.803Z,81.00
2022-10-22T08:28:39.166Z,81.20
2022-10-22T08:31:08.315Z,80.90
2022-10-22T08:33:36.538Z,80.80
2022-10-22T08:36:04.549Z,80.70
2022-10-22T08:38:31.852Z,80.80
2022-10-22T08:41:07.799Z,80.60
2022-10-22T08:44:02.585Z,80.40
2022-10-22T08:46:44.816Z,80.50
2022-10-22T08:49:18.819Z,80.40
2022-10-22T08:51:46.264Z,80.30
2022-10-22T08:54:22.623Z,80.60
2022-10-22T08:57:01.340Z,80.70
2022-10-22T08:59:35.551Z,80.20
2022-10-22T09:02:12.776Z,80.40
2022-10-22T09:04:45.985Z,80.50
2022-10-22T09:07:13.250Z,80.50
2022-10-22T09:09:46.749Z,80.50
2022-10-22T09:12:20.204Z,79.90
2022-10-22T09:14:47.954Z,80.30
2022-10-22T09:17:25.186Z,80.40
2022-10-22T09:20:08.343Z,80.20
2022-10-22T09:22:44.368Z,79.70
2022-10-22T09:25:19.713Z,80.00
2022-10-22T09:27:48.265Z,79.90
2022-10-22T09:30:17.723Z,79.40
2022-10-22T09:32:46.590Z,79.30
2022-10-22T09:35:15.173Z,79.40
2022-10-22T09:37:48.970Z,79.60
2022-10-22T09:40:17.347Z,79.50
2022-10-22T09:42:45.716Z,79.50
2022-10-22T09:45:19.034Z,79.40
2022-10-22T09:48:01.560Z,79.80
2022-10-22T09:50:38.338Z,80.00
2022-10-22T09:53:12.593Z,79.80
2022-10-22T09:55:41.073Z,79.60
2022-10-22T09:58:11.371Z,79.10
2022-10-22T10:00:39.293Z,79.10
2022-10-22T10:03:17.284Z,79.20
2022-10-22T10:05:47.626Z,79.70
2022-10-22T10:08:17.472Z,79.40
2022-10-22T10:10:48.787Z,79.20
2022-10-22T10:13:28.502Z,79.20
2022-10-22T10:16:03.081Z,79.30
2022-10-22T10:18:43.172Z,79.50
2022-10-22T10:21:22.226Z,79.20
2022-10-22T10:23:55.368Z,79.00
2022-10-22T10:26:29.549Z,78.60
2022-10-22T10:29:10.863Z,78.40
2022-10-22T10:31:49.482Z,78.10
2022-10-22T10:34:29.771Z,78.40
2022-10-22T10:37:09.596Z,78.60
2022-10-22T10:39:46.540Z,78.70
2022-10-22T10:42:22.967Z,78.50
2022-10-22T10:45:02.725Z,78.50
2022-10-22T10:47:51.260Z,78.20
2022-10-22T10:50:26.643Z,78.30
2022-10-22T10:53:02.811Z,78.40
2022-10-22T10:55:32.737Z,78.50
2022-10-22T10:58:13.387Z,78.20
2022-10-22T11:00:45.551Z,78.30
2022-10-22T11:03:51.632Z,78.30
2022-10-22T11:06:24.545Z,78.60
2022-10-22T11:08:58.366Z,78.90
2022-10-22T11:11:32.930Z,78.90
2022-10-22T11:14:09.284Z,78.70
2022-10-22T11:16:42.577Z,78.50
2022-10-22T11:19:22.742Z,78.00
2022-10-22T11:22:05.108Z,77.30
2022-10-22T11:24:37.143Z,76.30
2022-10-22T11:27:11.516Z,75.90
2022-10-22T11:29:42.878Z,75.50
2022-10-22T11:32:15.532Z,74.90
2022-10-22T11:34:47.073Z,74.40
2022-10-22T11:37:16.697Z,74.60
2022-10-22T11:39:47.652Z,74.50
2022-10-22T11:42:20.656Z,74.60
2022-10-22T11:44:58.065Z,74.30
2022-10-22T11:47:27.003Z,73.90
2022-10-22T11:50:02.196Z,73.40
2022-10-22T11:52:47.487Z,72.70
2022-10-22T11:55:48.962Z,72.30
2022-10-22T11:58:33.282Z,71.00
2022-10-22T12:01:21.785Z,71.10
2022-10-22T12:03:50.765Z,70.20
2022-10-22T12:06:21.467Z,68.50
2022-10-22T12:08:58.415Z,67.40
2022-10-22T12:11:28.545Z,67.00
2022-10-22T12:14:12.741Z,66.40
2022-10-22T12:16:55.738Z,65.70
2022-10-22T12:19:27.493Z,64.40
2022-10-22T12:21:57.752Z,65.00
2022-10-22T12:24:31.366Z,65.00
2022-10-22T12:26:58.669Z,64.30
2022-10-22T12:29:26.744Z,64.40
2022-10-22T12:31:55.141Z,63.90
2022-10-22T12:34:24.588Z,62.90
2022-10-22T12:36:53.954Z,63.30
2022-10-22T12:39:25.141Z,63.00
2022-10-22T12:41:54.664Z,62.80
2022-10-22T12:44:21.929Z,63.60
2022-10-22T12:46:53.186Z,64.10
2022-10-22T12:49:30.805Z,64.70
2022-10-22T12:52:02.975Z,64.10
2022-10-22T12:54:32.019Z,64.40
2022-10-22T12:57:01.329Z,63.60
2022-10-22T12:59:33.837Z,63.50
2022-10-22T13:02:02.568Z,62.70
2022-10-22T13:04:34.811Z,63.30
2022-10-22T13:07:19.886Z,63.10
2022-10-22T13:09:58.385Z,62.70
2022-10-22T13:12:28.625Z,62.40
2022-10-22T13:14:55.904Z,60.90
2022-10-22T13:17:39.246Z,59.40
2022-10-22T13:20:18.094Z,58.80
2022-10-22T13:22:54.726Z,58.70
2022-10-22T13:25:26.348Z,56.70
2022-10-22T13:27:57.299Z,55.10
2022-10-22T13:30:26.795Z,55.90
2022-10-22T13:32:56.225Z,54.30
2022-10-22T13:35:26.914Z,54.30
2022-10-22T13:37:54.255Z,53.10
2022-10-22T13:40:22.073Z,52.60
2022-10-22T13:42:49.420Z,52.80
2022-10-22T13:45:18.442Z,50.80
2022-10-22T13:47:50.658Z,51.20
2022-10-22T13:50:20.316Z,50.20
2022-10-22T13:52:50.709Z,49.40
2022-10-22T13:55:21.365Z,49.10
2022-10-22T13:57:49.797Z,48.10
2022-10-22T14:00:20.967Z,48.80
2022-10-22T14:02:52.005Z,47.40
2022-10-22T14:05:19.831Z,46.80
2022-10-22T14:07:47.955Z,48.30
2022-10-22T14:10:18.231Z,47.70
2022-10-22T14:12:49.284Z,47.30
2022-10-22T14:15:21.337Z,46.90
2022-10-22T14:17:52.333Z,47.30
2022-10-22T14:20:23.067Z,46.80
2022-10-22T14:22:51.002Z,47.90
2022-10-22T14:25:20.817Z,48.00
2022-10-22T14:27:48.598Z,47.80
2022-10-22T14:30:17.613Z,47.00
2022-10-22T14:32:48.176Z,47.90
2022-10-22T14:35:17.865Z,47.50
2022-10-22T14:37:45.157Z,48.50
2022-10-22T14:40:16.319Z,49.60
2022-10-22T14:42:45.525Z,49.40
2022-10-22T14:45:16.577Z,49.40
2022-10-22T14:47:44.031Z,49.30
2022-10-22T14:50:13.628Z,49.70
2022-10-22T14:52:43.540Z,49.60
2022-10-22T14:55:12.733Z,49.30
2022-10-22T14:57:40.987Z,51.00
2022-10-22T15:00:11.495Z,51.10
2022-10-22T15:02:38.979Z,51.60
2022-10-22T15:05:07.742Z,51.50
2022-10-22T15:07:37.378Z,52.00
2022-10-22T15:10:05.997Z,52.10
2022-10-22T15:12:33.578Z,53.70
2022-10-22T15:15:00.891Z,53.70
2022-10-22T15:17:28.374Z,54.10
2022-10-22T15:19:56.423Z,54.30
2022-10-22T15:22:23.739Z,54.90
2022-10-22T15:24:53.609Z,55.40
2022-10-22T15:27:20.957Z,55.20
2022-10-22T15:29:48.242Z,55.90
2022-10-22T15:32:15.623Z,56.40
2022-10-22T15:34:42.879Z,56.80
2022-10-22T15:37:12.722Z,56.70
2022-10-22T15:39:40.612Z,57.30
2022-10-22T15:42:09.959Z,57.60
2022-10-22T15:44:37.676Z,58.00
2022-10-22T15:47:07.105Z,57.90
2022-10-22T15:49:36.364Z,58.20
2022-10-22T15:52:04.174Z,58.60
2022-10-22T15:54:32.480Z,58.90
2022-10-22T15:57:02.264Z,59.30
2022-10-22T15:59:31.117Z,59.60
2022-10-22T16:01:58.392Z,59.90
2022-10-22T16:04:25.697Z,60.10
2022-10-22T16:06:53.781Z,60.50
2022-10-22T16:09:23.681Z,60.80
2022-10-22T16:14:20.619Z,61.40
2022-10-22T16:16:51.237Z,61.70
2022-10-22T16:19:20.726Z,62.00
2022-10-22T16:21:50.059Z,62.20
2022-10-22T16:24:17.712Z,62.50
2022-10-22T16:26:45.018Z,62.80
2022-10-22T16:29:12.808Z,63.10
2022-10-22T16:31:41.231Z,63.20
2022-10-22T16:34:10.040Z,63.40
2022-10-22T16:36:38.281Z,63.80
2022-10-22T16:39:06.950Z,64.30
2022-10-22T16:41:37.277Z,64.30
2022-10-22T16:44:06.300Z,64.60
2022-10-22T16:46:36.644Z,65.00
2022-10-22T16:49:04.354Z,65.30
2022-10-22T16:51:32.977Z,65.70
2022-10-22T16:54:00.362Z,65.70
2022-10-22T16:56:27.707Z,65.80
2022-10-22T16:58:56.347Z,66.30
2022-10-22T17:01:29.660Z,66.10
2022-10-22T17:03:59.043Z,66.40
2022-10-22T17:06:26.405Z,67.30
2022-10-22T17:08:55.144Z,66.80
2022-10-22T17:11:24.583Z,67.50
2022-10-22T17:13:53.625Z,67.30
2022-10-22T17:16:23.518Z,67.80
2022-10-22T17:18:52.624Z,67.50
2022-10-22T17:21:20.730Z,68.40
2022-10-22T17:23:48.543Z,68.40
2022-10-22T17:26:19.539Z,68.50
2022-10-22T17:28:47.042Z,69.00
2022-10-22T17:31:17.744Z,69.10
2022-10-22T17:33:45.796Z,69.40
2022-10-22T17:36:13.836Z,69.20
2022-10-22T17:38:42.478Z,69.20
2022-10-22T17:41:14.934Z,69.80
2022-10-22T17:43:43.863Z,70.20
2022-10-22T17:46:16.142Z,70.20
2022-10-22T17:48:43.396Z,70.10
2022-10-22T17:51:12.319Z,70.10
2022-10-22T17:53:40.698Z,70.70
2022-10-22T17:56:10.277Z,70.10
2022-10-22T17:58:37.709Z,70.70
2022-10-22T18:01:07.102Z,70.50
2022-10-22T18:03:34.509Z,71.10
2022-10-22T18:06:07.269Z,71.10
2022-10-22T18:08:34.642Z,71.70
2022-10-22T18:11:06.300Z,71.60
2022-10-22T18:13:33.677Z,71.70
2022-10-22T18:16:01.137Z,71.80
2022-10-22T18:18:30.027Z,72.70
2022-10-22T18:20:57.698Z,72.40
2022-10-22T18:23:24.980Z,72.70
2022-10-22T18:25:52.585Z,72.30
2022-10-22T18:28:20.560Z,72.70
2022-10-22T18:30:48.183Z,72.60
2022-10-22T18:33:18.452Z,72.90
2022-10-22T18:35:47.173Z,72.90
2022-10-22T18:38:14.465Z,72.50
2022-10-22T18:40:48.739Z,72.30
2022-10-22T18:43:16.663Z,72.50
2022-10-22T18:45:44.434Z,72.40
2022-10-22T18:48:14.517Z,72.50
2022-10-22T18:50:42.317Z,72.20
2022-10-22T18:53:14.176Z,72.00
2022-10-22T18:55:42.347Z,71.90
2022-10-22T18:58:09.593Z,72.30
2022-10-22T19:00:38.494Z,71.90
2022-10-22T19:03:05.865Z,72.10
2022-10-22T19:05:33.965Z,72.00
2022-10-22T19:08:01.233Z,72.00
2022-10-22T19:10:29.867Z,71.90
2022-10-22T19:12:57.111Z,71.60
2022-10-22T19:15:24.421Z,71.90
2022-10-22T19:17:51.728Z,71.40
2022-10-22T19:20:19.175Z,72.10
2022-10-22T19:22:46.610Z,71.60
2022-10-22T19:25:13.928Z,72.00
2022-10-22T19:27:42.768Z,71.90
2022-10-22T19:30:11.344Z,71.80
2022-10-22T19:32:38.650Z,71.80
2022-10-22T19:35:06.336Z,72.00
2022-10-22T19:37:33.765Z,71.70
2022-10-22T19:40:01.096Z,71.70
2022-10-22T19:42:29.040Z,71.50
2022-10-22T19:44:57.871Z,71.70
2022-10-22T19:47:25.286Z,71.30
2022-10-22T19:49:52.585Z,71.30
2022-10-22T19:52:20.005Z,71.60
2022-10-22T19:54:47.317Z,71.10
2022-10-22T19:57:16.794Z,71.50
2022-10-22T19:59:44.139Z,71.70
2022-10-22T20:02:16.476Z,71.60
2022-10-22T20:04:49.138Z,71.60
2022-10-22T20:07:17.533Z,71.90
2022-10-22T20:09:44.784Z,71.80
2022-10-22T20:12:12.045Z,71.70
2022-10-22T20:14:39.987Z,72.00
2022-10-22T20:17:07.310Z,72.40
2022-10-22T20:19:35.874Z,72.60
2022-10-22T20:22:03.242Z,72.30
2022-10-22T20:24:30.583Z,72.20
2022-10-22T20:26:58.006Z,72.50
2022-10-22T20:29:25.362Z,72.40
2022-10-22T20:31:52.663Z,72.90
2022-10-22T20:34:19.919Z,72.50
2022-10-22T20:36:48.595Z,72.50
2022-10-22T20:39:16.706Z,72.40
2022-10-22T20:41:45.284Z,72.40
2022-10-22T20:44:16.121Z,72.60
2022-10-22T20:46:44.048Z,72.90
2022-10-22T20:49:13.282Z,73.10
2022-10-22T20:51:40.640Z,73.30
2022-10-22T20:54:10.230Z,73.60
2022-10-22T20:56:39.254Z,73.80
2022-10-22T20:59:08.531Z,74.00
2022-10-22T21:01:37.656Z,73.90
2022-10-22T21:04:05.512Z,73.40
2022-10-22T21:06:34.169Z,73.60
2022-10-22T21:09:01.500Z,73.70
2022-10-22T21:11:30.254Z,73.90
2022-10-22T21:13:57.575Z,73.50
2022-10-22T21:16:24.835Z,73.50
2022-10-22T21:18:52.095Z,73.50
2022-10-22T21:21:20.019Z,73.90
2022-10-22T21:23:47.638Z,74.00
2022-10-22T21:26:14.954Z,73.80
2022-10-22T21:28:43.551Z,74.20
2022-10-22T21:31:18.665Z,74.60
2022-10-22T21:33:45.942Z,74.50
2022-10-22T21:36:13.213Z,74.30
2022-10-22T21:38:40.543Z,74.20
2022-10-22T21:41:09.509Z,74.40
2022-10-22T21:43:38.229Z,74.50
2022-10-22T21:46:08.611Z,74.70
2022-10-22T21:48:36.809Z,74.90
2022-10-22T21:51:08.160Z,74.90
2022-10-22T21:53:35.556Z,74.80
2022-10-22T21:56:03.435Z,75.20
2022-10-22T21:58:30.913Z,75.20
2022-10-22T22:00:58.536Z,75.10
2022-10-22T22:03:27.413Z,75.20
2022-10-22T22:05:58.794Z,75.10
2022-10-22T22:08:26.329Z,75.00
2022-10-22T22:10:59.773Z,74.80
2022-10-22T22:13:27.006Z,75.10
2022-10-22T22:15:54.247Z,74.70
2022-10-22T22:18:21.525Z,74.60
2022-10-22T22:20:50.134Z,74.40
2022-10-22T22:23:17.405Z,74.20
2022-10-22T22:25:46.033Z,73.90
2022-10-22T22:28:13.291Z,74.00
2022-10-22T22:30:40.833Z,73.90
2022-10-22T22:33:08.168Z,73.80
2022-10-22T22:35:36.902Z,73.90
2022-10-22T22:38:06.917Z,74.00
2022-10-22T22:40:34.262Z,73.70
2022-10-22T22:43:01.476Z,73.70
2022-10-22T22:45:28.732Z,73.80
2022-10-22T22:47:56.915Z,74.20
2022-10-22T22:50:24.221Z,73.90
2022-10-22T22:52:51.526Z,73.90
2022-10-22T22:55:20.265Z,74.10
2022-10-22T22:57:47.502Z,74.00
2022-10-22T23:00:15.699Z,74.10
2022-10-22T23:02:43.335Z,74.10
2022-10-22T23:05:11.423Z,74.30
2022-10-22T23:07:38.932Z,74.40
2022-10-22T23:10:06.957Z,74.60
2022-10-22T23:12:35.554Z,74.40
2022-10-22T23:15:02.983Z,74.40
2022-10-22T23:17:30.298Z,74.50
2022-10-22T23:19:57.566Z,74.30
2022-10-22T23:22:24.823Z,74.70
2022-10-22T23:24:52.099Z,75.10
2022-10-22T23:27:19.320Z,74.90
2022-10-22T23:29:47.910Z,74.90
2022-10-22T23:32:15.310Z,74.90
2022-10-22T23:34:42.626Z,75.10
2022-10-22T23:37:11.850Z,75.30
2022-10-22T23:39:39.128Z,75.20
2022-10-22T23:42:06.363Z,75.50
2022-10-22T23:44:33.712Z,75.20
2022-10-22T23:47:02.293Z,75.50
2022-10-22T23:49:29.527Z,75.30
2022-10-22T23:51:56.751Z,75.00
2022-10-22T23:54:23.993Z,75.60
2022-10-22T23:56:51.228Z,74.80
2022-10-22T23:59:18.520Z,75.20
